sensor_id;sensor_type;location;lat;lon;timestamp;P1;durP1;ratioP1;P2;durP2;ratioP2
1376;SDS011;682;52.502;13.488;2023-03-21T00:00:41;14.30;;;10.50;;
1376;SDS011;682;52.502;13.488;2023-03-21T00:03:08;12.90;;;9.73;;
1376;SDS011;682;52.502;13.488;2023-03-21T00:05:38;12.03;;;9.73;;
1376;SDS011;682;52.502;13.488;2023-03-21T00:08:07;14.50;;;10.10;;
1376;SDS011;682;52.502;13.488;2023-03-21T00:10:35;13.87;;;9.47;;
1376;SDS011;682;52.502;13.488;2023-03-21T00:13:02;14.37;;;9.23;;
1376;SDS011;682;52.502;13.488;2023-03-21T00:15:29;15.27;;;11.17;;
1376;SDS011;682;52.502;13.488;2023-03-21T00:17:56;13.40;;;9.30;;
1376;SDS011;682;52.502;13.488;2023-03-21T00:20:27;12.93;;;9.30;;
1376;SDS011;682;52.502;13.488;2023-03-21T00:22:56;15.10;;;10.13;;
1376;SDS011;682;52.502;13.488;2023-03-21T00:25:23;16.53;;;10.23;;
1376;SDS011;682;52.502;13.488;2023-03-21T00:27:51;16.67;;;9.60;;
1376;SDS011;682;52.502;13.488;2023-03-21T00:30:18;11.47;;;9.10;;
1376;SDS011;682;52.502;13.488;2023-03-21T00:32:45;15.00;;;9.00;;
1376;SDS011;682;52.502;13.488;2023-03-21T00:35:12;10.73;;;8.00;;
1376;SDS011;682;52.502;13.488;2023-03-21T00:37:40;16.20;;;9.00;;
1376;SDS011;682;52.502;13.488;2023-03-21T00:40:07;12.00;;;8.30;;
1376;SDS011;682;52.502;13.488;2023-03-21T00:42:35;14.73;;;9.33;;
1376;SDS011;682;52.502;13.488;2023-03-21T00:45:04;12.60;;;8.83;;
1376;SDS011;682;52.502;13.488;2023-03-21T00:47:34;14.30;;;9.10;;
1376;SDS011;682;52.502;13.488;2023-03-21T00:50:01;15.30;;;9.73;;
1376;SDS011;682;52.502;13.488;2023-03-21T00:52:29;13.87;;;9.50;;
1376;SDS011;682;52.502;13.488;2023-03-21T00:54:56;12.07;;;8.70;;
1376;SDS011;682;52.502;13.488;2023-03-21T00:57:23;12.20;;;8.60;;
1376;SDS011;682;52.502;13.488;2023-03-21T00:59:50;13.80;;;9.30;;
1376;SDS011;682;52.502;13.488;2023-03-21T01:02:18;14.00;;;8.83;;
1376;SDS011;682;52.502;13.488;2023-03-21T01:04:47;13.60;;;9.13;;
1376;SDS011;682;52.502;13.488;2023-03-21T01:07:15;12.40;;;10.00;;
1376;SDS011;682;52.502;13.488;2023-03-21T01:09:42;14.50;;;9.40;;
1376;SDS011;682;52.502;13.488;2023-03-21T01:12:09;13.30;;;10.70;;
1376;SDS011;682;52.502;13.488;2023-03-21T01:14:36;15.80;;;10.37;;
1376;SDS011;682;52.502;13.488;2023-03-21T01:17:03;13.77;;;9.90;;
1376;SDS011;682;52.502;13.488;2023-03-21T01:19:32;14.70;;;10.23;;
1376;SDS011;682;52.502;13.488;2023-03-21T01:21:59;13.70;;;9.83;;
1376;SDS011;682;52.502;13.488;2023-03-21T01:24:26;15.20;;;10.60;;
1376;SDS011;682;52.502;13.488;2023-03-21T01:26:54;15.10;;;11.20;;
1376;SDS011;682;52.502;13.488;2023-03-21T01:29:21;15.80;;;12.07;;
1376;SDS011;682;52.502;13.488;2023-03-21T01:31:48;16.07;;;13.30;;
1376;SDS011;682;52.502;13.488;2023-03-21T01:34:15;16.17;;;12.87;;
1376;SDS011;682;52.502;13.488;2023-03-21T01:36:44;18.60;;;13.90;;
1376;SDS011;682;52.502;13.488;2023-03-21T01:39:11;18.13;;;14.40;;
1376;SDS011;682;52.502;13.488;2023-03-21T01:41:40;20.80;;;16.57;;
1376;SDS011;682;52.502;13.488;2023-03-21T01:44:09;23.00;;;16.03;;
1376;SDS011;682;52.502;13.488;2023-03-21T01:46:41;23.00;;;16.70;;
1376;SDS011;682;52.502;13.488;2023-03-21T01:49:12;20.00;;;15.93;;
1376;SDS011;682;52.502;13.488;2023-03-21T01:51:42;18.80;;;15.77;;
1376;SDS011;682;52.502;13.488;2023-03-21T01:54:15;21.63;;;16.83;;
1376;SDS011;682;52.502;13.488;2023-03-21T01:56:49;23.27;;;17.70;;
1376;SDS011;682;52.502;13.488;2023-03-21T01:59:19;25.50;;;18.90;;
1376;SDS011;682;52.502;13.488;2023-03-21T02:01:50;23.63;;;19.03;;
1376;SDS011;682;52.502;13.488;2023-03-21T02:04:18;21.40;;;18.17;;
1376;SDS011;682;52.502;13.488;2023-03-21T02:06:55;20.30;;;18.00;;
1376;SDS011;682;52.502;13.488;2023-03-21T02:09:26;22.93;;;19.47;;
1376;SDS011;682;52.502;13.488;2023-03-21T02:11:55;27.87;;;23.00;;
1376;SDS011;682;52.502;13.488;2023-03-21T02:14:23;24.50;;;21.90;;
1376;SDS011;682;52.502;13.488;2023-03-21T02:16:52;27.70;;;23.17;;
1376;SDS011;682;52.502;13.488;2023-03-21T02:22:50;29.40;;;23.60;;
1376;SDS011;682;52.502;13.488;2023-03-21T02:25:38;27.10;;;23.47;;
1376;SDS011;682;52.502;13.488;2023-03-21T02:28:29;26.60;;;23.57;;
1376;SDS011;682;52.502;13.488;2023-03-21T02:31:04;27.87;;;24.20;;
1376;SDS011;682;52.502;13.488;2023-03-21T02:33:57;28.07;;;22.63;;
1376;SDS011;682;52.502;13.488;2023-03-21T02:36:48;26.83;;;24.03;;
1376;SDS011;682;52.502;13.488;2023-03-21T02:39:23;28.33;;;25.17;;
1376;SDS011;682;52.502;13.488;2023-03-21T02:41:56;30.40;;;26.27;;
1376;SDS011;682;52.502;13.488;2023-03-21T02:44:30;30.50;;;25.70;;
1376;SDS011;682;52.502;13.488;2023-03-21T02:47:04;28.90;;;24.70;;
1376;SDS011;682;52.502;13.488;2023-03-21T02:49:36;32.70;;;26.70;;
1376;SDS011;682;52.502;13.488;2023-03-21T02:52:12;30.07;;;26.90;;
1376;SDS011;682;52.502;13.488;2023-03-21T02:54:43;29.03;;;25.40;;
1376;SDS011;682;52.502;13.488;2023-03-21T02:57:12;29.57;;;26.07;;
1376;SDS011;682;52.502;13.488;2023-03-21T02:59:41;30.87;;;26.33;;
1376;SDS011;682;52.502;13.488;2023-03-21T03:02:09;28.60;;;25.70;;
1376;SDS011;682;52.502;13.488;2023-03-21T03:04:36;27.23;;;24.20;;
1376;SDS011;682;52.502;13.488;2023-03-21T03:07:16;30.90;;;26.97;;
1376;SDS011;682;52.502;13.488;2023-03-21T03:09:59;29.20;;;24.30;;
1376;SDS011;682;52.502;13.488;2023-03-21T03:12:39;33.07;;;25.03;;
1376;SDS011;682;52.502;13.488;2023-03-21T03:15:17;30.17;;;25.73;;
1376;SDS011;682;52.502;13.488;2023-03-21T03:17:53;29.63;;;24.50;;
1376;SDS011;682;52.502;13.488;2023-03-21T03:20:30;29.73;;;25.07;;
1376;SDS011;682;52.502;13.488;2023-03-21T03:23:06;30.17;;;26.07;;
1376;SDS011;682;52.502;13.488;2023-03-21T03:25:41;28.20;;;24.40;;
1376;SDS011;682;52.502;13.488;2023-03-21T03:28:14;31.13;;;24.27;;
1376;SDS011;682;52.502;13.488;2023-03-21T03:30:44;33.17;;;25.83;;
1376;SDS011;682;52.502;13.488;2023-03-21T03:33:13;28.40;;;24.50;;
1376;SDS011;682;52.502;13.488;2023-03-21T03:35:42;29.07;;;23.37;;
1376;SDS011;682;52.502;13.488;2023-03-21T03:38:11;27.90;;;23.97;;
1376;SDS011;682;52.502;13.488;2023-03-21T03:40:39;32.00;;;25.47;;
1376;SDS011;682;52.502;13.488;2023-03-21T03:43:10;33.00;;;26.10;;
1376;SDS011;682;52.502;13.488;2023-03-21T03:45:41;31.23;;;25.23;;
1376;SDS011;682;52.502;13.488;2023-03-21T03:48:13;35.23;;;26.50;;
1376;SDS011;682;52.502;13.488;2023-03-21T03:50:49;34.73;;;27.37;;
1376;SDS011;682;52.502;13.488;2023-03-21T03:53:21;31.47;;;25.77;;
1376;SDS011;682;52.502;13.488;2023-03-21T03:55:52;30.33;;;25.87;;
1376;SDS011;682;52.502;13.488;2023-03-21T03:58:23;33.80;;;27.50;;
1376;SDS011;682;52.502;13.488;2023-03-21T04:00:52;29.83;;;25.43;;
1376;SDS011;682;52.502;13.488;2023-03-21T04:03:20;34.37;;;28.73;;
1376;SDS011;682;52.502;13.488;2023-03-21T04:05:47;33.50;;;25.10;;
1376;SDS011;682;52.502;13.488;2023-03-21T04:08:15;33.90;;;26.30;;
1376;SDS011;682;52.502;13.488;2023-03-21T04:10:44;32.83;;;26.50;;
1376;SDS011;682;52.502;13.488;2023-03-21T04:13:11;32.43;;;26.57;;
1376;SDS011;682;52.502;13.488;2023-03-21T04:15:38;30.57;;;24.10;;
1376;SDS011;682;52.502;13.488;2023-03-21T04:18:07;33.30;;;26.27;;
1376;SDS011;682;52.502;13.488;2023-03-21T04:20:34;34.00;;;26.93;;
1376;SDS011;682;52.502;13.488;2023-03-21T04:23:00;34.20;;;27.27;;
1376;SDS011;682;52.502;13.488;2023-03-21T04:25:27;35.40;;;26.13;;
1376;SDS011;682;52.502;13.488;2023-03-21T04:27:56;35.27;;;27.30;;
1376;SDS011;682;52.502;13.488;2023-03-21T04:30:23;35.73;;;25.47;;
1376;SDS011;682;52.502;13.488;2023-03-21T04:32:50;33.80;;;26.10;;
1376;SDS011;682;52.502;13.488;2023-03-21T04:35:21;32.10;;;26.23;;
1376;SDS011;682;52.502;13.488;2023-03-21T04:37:49;34.77;;;24.93;;
1376;SDS011;682;52.502;13.488;2023-03-21T04:40:18;33.40;;;26.23;;
1376;SDS011;682;52.502;13.488;2023-03-21T04:42:46;32.80;;;25.50;;
1376;SDS011;682;52.502;13.488;2023-03-21T04:45:18;38.67;;;27.97;;
1376;SDS011;682;52.502;13.488;2023-03-21T04:47:45;34.90;;;26.00;;
1376;SDS011;682;52.502;13.488;2023-03-21T04:50:12;35.27;;;28.10;;
1376;SDS011;682;52.502;13.488;2023-03-21T04:52:40;35.90;;;27.13;;
1376;SDS011;682;52.502;13.488;2023-03-21T04:55:08;34.87;;;26.60;;
1376;SDS011;682;52.502;13.488;2023-03-21T04:57:35;33.30;;;24.50;;
1376;SDS011;682;52.502;13.488;2023-03-21T05:00:03;31.50;;;24.57;;
1376;SDS011;682;52.502;13.488;2023-03-21T05:02:37;31.87;;;24.60;;
1376;SDS011;682;52.502;13.488;2023-03-21T05:05:06;35.27;;;26.03;;
1376;SDS011;682;52.502;13.488;2023-03-21T05:07:36;33.80;;;25.80;;
1376;SDS011;682;52.502;13.488;2023-03-21T05:10:04;30.87;;;25.63;;
1376;SDS011;682;52.502;13.488;2023-03-21T05:12:33;34.17;;;26.37;;
1376;SDS011;682;52.502;13.488;2023-03-21T05:15:00;32.60;;;25.23;;
1376;SDS011;682;52.502;13.488;2023-03-21T05:17:28;34.70;;;27.07;;
1376;SDS011;682;52.502;13.488;2023-03-21T05:19:56;35.23;;;26.00;;
1376;SDS011;682;52.502;13.488;2023-03-21T05:22:23;34.67;;;25.47;;
1376;SDS011;682;52.502;13.488;2023-03-21T05:24:54;35.50;;;28.37;;
1376;SDS011;682;52.502;13.488;2023-03-21T05:27:21;31.90;;;24.87;;
1376;SDS011;682;52.502;13.488;2023-03-21T05:30:00;34.50;;;26.60;;
1376;SDS011;682;52.502;13.488;2023-03-21T05:32:30;36.27;;;25.97;;
1376;SDS011;682;52.502;13.488;2023-03-21T05:34:59;33.97;;;25.90;;
1376;SDS011;682;52.502;13.488;2023-03-21T05:37:27;34.43;;;25.03;;
1376;SDS011;682;52.502;13.488;2023-03-21T05:39:54;37.80;;;27.47;;
1376;SDS011;682;52.502;13.488;2023-03-21T05:42:21;34.90;;;26.03;;
1376;SDS011;682;52.502;13.488;2023-03-21T05:44:48;36.57;;;26.53;;
1376;SDS011;682;52.502;13.488;2023-03-21T05:47:18;39.33;;;26.13;;
1376;SDS011;682;52.502;13.488;2023-03-21T05:49:45;33.20;;;25.13;;
1376;SDS011;682;52.502;13.488;2023-03-21T05:52:13;33.20;;;25.83;;
1376;SDS011;682;52.502;13.488;2023-03-21T05:54:41;36.13;;;26.00;;
1376;SDS011;682;52.502;13.488;2023-03-21T05:57:08;33.90;;;25.60;;
1376;SDS011;682;52.502;13.488;2023-03-21T05:59:35;35.57;;;23.83;;
1376;SDS011;682;52.502;13.488;2023-03-21T06:02:03;31.83;;;24.43;;
1376;SDS011;682;52.502;13.488;2023-03-21T06:04:33;34.80;;;25.53;;
1376;SDS011;682;52.502;13.488;2023-03-21T06:06:59;34.50;;;23.60;;
1376;SDS011;682;52.502;13.488;2023-03-21T06:09:28;34.63;;;24.50;;
1376;SDS011;682;52.502;13.488;2023-03-21T06:11:56;33.60;;;25.00;;
1376;SDS011;682;52.502;13.488;2023-03-21T06:14:25;32.83;;;24.27;;
1376;SDS011;682;52.502;13.488;2023-03-21T06:16:53;36.50;;;25.87;;
1376;SDS011;682;52.502;13.488;2023-03-21T06:19:21;36.00;;;25.90;;
1376;SDS011;682;52.502;13.488;2023-03-21T06:21:48;35.97;;;25.80;;
1376;SDS011;682;52.502;13.488;2023-03-21T06:24:17;40.30;;;26.03;;
1376;SDS011;682;52.502;13.488;2023-03-21T06:26:46;31.40;;;22.83;;
1376;SDS011;682;52.502;13.488;2023-03-21T06:29:13;34.87;;;24.77;;
1376;SDS011;682;52.502;13.488;2023-03-21T06:31:40;33.93;;;24.77;;
1376;SDS011;682;52.502;13.488;2023-03-21T06:34:07;33.90;;;25.30;;
1376;SDS011;682;52.502;13.488;2023-03-21T06:36:35;32.33;;;24.03;;
1376;SDS011;682;52.502;13.488;2023-03-21T06:39:03;36.97;;;26.63;;
1376;SDS011;682;52.502;13.488;2023-03-21T06:41:31;34.07;;;25.20;;
1376;SDS011;682;52.502;13.488;2023-03-21T06:44:01;36.63;;;25.63;;
1376;SDS011;682;52.502;13.488;2023-03-21T06:46:30;34.70;;;25.03;;
1376;SDS011;682;52.502;13.488;2023-03-21T06:48:58;37.73;;;26.30;;
1376;SDS011;682;52.502;13.488;2023-03-21T06:51:26;37.10;;;25.70;;
1376;SDS011;682;52.502;13.488;2023-03-21T06:53:53;39.83;;;26.30;;
1376;SDS011;682;52.502;13.488;2023-03-21T06:56:21;36.83;;;26.47;;
1376;SDS011;682;52.502;13.488;2023-03-21T06:58:49;38.23;;;25.13;;
1376;SDS011;682;52.502;13.488;2023-03-21T07:01:17;33.37;;;25.80;;
1376;SDS011;682;52.502;13.488;2023-03-21T07:03:45;34.13;;;25.03;;
1376;SDS011;682;52.502;13.488;2023-03-21T07:06:12;37.50;;;26.10;;
1376;SDS011;682;52.502;13.488;2023-03-21T07:08:41;36.13;;;25.87;;
1376;SDS011;682;52.502;13.488;2023-03-21T07:11:08;31.30;;;24.80;;
1376;SDS011;682;52.502;13.488;2023-03-21T07:13:37;39.90;;;27.30;;
1376;SDS011;682;52.502;13.488;2023-03-21T07:16:06;43.50;;;28.10;;
1376;SDS011;682;52.502;13.488;2023-03-21T07:18:36;41.80;;;26.50;;
1376;SDS011;682;52.502;13.488;2023-03-21T07:21:03;47.43;;;27.07;;
1376;SDS011;682;52.502;13.488;2023-03-21T07:23:32;39.70;;;26.93;;
1376;SDS011;682;52.502;13.488;2023-03-21T07:26:00;34.13;;;25.73;;
1376;SDS011;682;52.502;13.488;2023-03-21T07:28:31;36.43;;;27.40;;
1376;SDS011;682;52.502;13.488;2023-03-21T07:30:58;38.10;;;28.73;;
1376;SDS011;682;52.502;13.488;2023-03-21T07:33:38;38.90;;;28.30;;
1376;SDS011;682;52.502;13.488;2023-03-21T07:36:08;43.50;;;29.13;;
1376;SDS011;682;52.502;13.488;2023-03-21T07:38:37;38.40;;;28.47;;
1376;SDS011;682;52.502;13.488;2023-03-21T07:41:08;40.77;;;28.47;;
1376;SDS011;682;52.502;13.488;2023-03-21T07:43:35;41.47;;;27.87;;
1376;SDS011;682;52.502;13.488;2023-03-21T07:46:05;42.07;;;29.13;;
1376;SDS011;682;52.502;13.488;2023-03-21T07:48:32;41.43;;;29.97;;
1376;SDS011;682;52.502;13.488;2023-03-21T07:51:01;36.43;;;27.00;;
1376;SDS011;682;52.502;13.488;2023-03-21T07:53:30;41.60;;;29.00;;
1376;SDS011;682;52.502;13.488;2023-03-21T07:55:57;38.37;;;28.60;;
1376;SDS011;682;52.502;13.488;2023-03-21T07:58:24;39.30;;;27.93;;
1376;SDS011;682;52.502;13.488;2023-03-21T08:00:52;39.17;;;29.00;;
1376;SDS011;682;52.502;13.488;2023-03-21T08:03:20;44.00;;;28.67;;
1376;SDS011;682;52.502;13.488;2023-03-21T08:05:50;38.77;;;29.00;;
1376;SDS011;682;52.502;13.488;2023-03-21T08:08:19;43.30;;;27.53;;
1376;SDS011;682;52.502;13.488;2023-03-21T08:10:46;40.00;;;28.03;;
1376;SDS011;682;52.502;13.488;2023-03-21T08:13:13;37.50;;;26.50;;
1376;SDS011;682;52.502;13.488;2023-03-21T08:15:40;35.80;;;25.40;;
1376;SDS011;682;52.502;13.488;2023-03-21T08:18:07;38.70;;;27.87;;
1376;SDS011;682;52.502;13.488;2023-03-21T08:20:35;40.07;;;28.50;;
1376;SDS011;682;52.502;13.488;2023-03-21T08:23:02;38.73;;;25.87;;
1376;SDS011;682;52.502;13.488;2023-03-21T08:25:30;36.43;;;26.50;;
1376;SDS011;682;52.502;13.488;2023-03-21T08:28:03;38.40;;;28.40;;
1376;SDS011;682;52.502;13.488;2023-03-21T08:30:30;39.03;;;24.80;;
1376;SDS011;682;52.502;13.488;2023-03-21T08:33:00;39.10;;;27.50;;
1376;SDS011;682;52.502;13.488;2023-03-21T08:35:28;37.60;;;26.80;;
1376;SDS011;682;52.502;13.488;2023-03-21T08:37:56;36.83;;;27.03;;
1376;SDS011;682;52.502;13.488;2023-03-21T08:40:23;36.40;;;26.17;;
1376;SDS011;682;52.502;13.488;2023-03-21T08:42:54;36.10;;;25.70;;
1376;SDS011;682;52.502;13.488;2023-03-21T08:45:21;40.77;;;27.43;;
1376;SDS011;682;52.502;13.488;2023-03-21T08:47:49;37.97;;;26.47;;
1376;SDS011;682;52.502;13.488;2023-03-21T08:50:19;33.43;;;23.50;;
1376;SDS011;682;52.502;13.488;2023-03-21T08:52:48;36.53;;;26.50;;
1376;SDS011;682;52.502;13.488;2023-03-21T08:55:15;31.43;;;23.77;;
1376;SDS011;682;52.502;13.488;2023-03-21T08:57:44;32.60;;;21.80;;
1376;SDS011;682;52.502;13.488;2023-03-21T09:00:17;37.17;;;25.20;;
1376;SDS011;682;52.502;13.488;2023-03-21T09:02:45;32.10;;;23.30;;
1376;SDS011;682;52.502;13.488;2023-03-21T09:05:15;33.83;;;24.93;;
1376;SDS011;682;52.502;13.488;2023-03-21T09:07:43;31.93;;;23.33;;
1376;SDS011;682;52.502;13.488;2023-03-21T09:10:14;38.07;;;25.10;;
1376;SDS011;682;52.502;13.488;2023-03-21T09:12:44;33.70;;;23.80;;
1376;SDS011;682;52.502;13.488;2023-03-21T09:15:11;33.77;;;22.80;;
1376;SDS011;682;52.502;13.488;2023-03-21T09:17:40;32.43;;;23.00;;
1376;SDS011;682;52.502;13.488;2023-03-21T09:20:09;28.30;;;21.40;;
1376;SDS011;682;52.502;13.488;2023-03-21T09:22:42;29.20;;;22.80;;
1376;SDS011;682;52.502;13.488;2023-03-21T09:25:10;31.87;;;21.40;;
1376;SDS011;682;52.502;13.488;2023-03-21T09:27:38;32.90;;;21.70;;
1376;SDS011;682;52.502;13.488;2023-03-21T09:30:05;34.50;;;21.93;;
1376;SDS011;682;52.502;13.488;2023-03-21T09:32:35;34.33;;;22.70;;
1376;SDS011;682;52.502;13.488;2023-03-21T09:35:04;31.20;;;23.37;;
1376;SDS011;682;52.502;13.488;2023-03-21T09:37:36;31.90;;;23.03;;
1376;SDS011;682;52.502;13.488;2023-03-21T09:40:08;29.00;;;19.97;;
1376;SDS011;682;52.502;13.488;2023-03-21T09:42:42;32.20;;;23.07;;
1376;SDS011;682;52.502;13.488;2023-03-21T09:45:17;34.63;;;23.47;;
1376;SDS011;682;52.502;13.488;2023-03-21T09:47:48;34.80;;;25.63;;
1376;SDS011;682;52.502;13.488;2023-03-21T09:50:20;30.97;;;21.70;;
1376;SDS011;682;52.502;13.488;2023-03-21T09:52:53;34.50;;;24.10;;
1376;SDS011;682;52.502;13.488;2023-03-21T09:55:29;38.30;;;24.63;;
1376;SDS011;682;52.502;13.488;2023-03-21T09:58:04;31.20;;;23.80;;
1376;SDS011;682;52.502;13.488;2023-03-21T10:00:37;34.30;;;24.30;;
1376;SDS011;682;52.502;13.488;2023-03-21T10:03:10;34.87;;;25.23;;
1376;SDS011;682;52.502;13.488;2023-03-21T10:05:50;34.27;;;24.50;;
1376;SDS011;682;52.502;13.488;2023-03-21T10:40:59;35.50;;;26.40;;
1376;SDS011;682;52.502;13.488;2023-03-21T10:43:30;28.27;;;21.07;;
1376;SDS011;682;52.502;13.488;2023-03-21T10:46:05;29.70;;;21.00;;
1376;SDS011;682;52.502;13.488;2023-03-21T10:48:34;30.30;;;22.70;;
1376;SDS011;682;52.502;13.488;2023-03-21T10:51:02;29.27;;;22.67;;
1376;SDS011;682;52.502;13.488;2023-03-21T10:53:34;29.20;;;21.07;;
1376;SDS011;682;52.502;13.488;2023-03-21T10:56:06;27.07;;;21.33;;
1376;SDS011;682;52.502;13.488;2023-03-21T10:58:37;29.57;;;21.97;;
1376;SDS011;682;52.502;13.488;2023-03-21T11:01:09;32.23;;;22.83;;
1376;SDS011;682;52.502;13.488;2023-03-21T11:03:40;26.40;;;19.37;;
1376;SDS011;682;52.502;13.488;2023-03-21T11:06:12;26.20;;;19.40;;
1376;SDS011;682;52.502;13.488;2023-03-21T11:08:43;29.70;;;20.73;;
1376;SDS011;682;52.502;13.488;2023-03-21T11:11:19;28.53;;;18.80;;
1376;SDS011;682;52.502;13.488;2023-03-21T11:13:54;27.27;;;18.80;;
1376;SDS011;682;52.502;13.488;2023-03-21T11:16:24;27.10;;;19.50;;
1376;SDS011;682;52.502;13.488;2023-03-21T11:18:56;26.63;;;18.20;;
1376;SDS011;682;52.502;13.488;2023-03-21T11:21:25;26.63;;;20.03;;
1376;SDS011;682;52.502;13.488;2023-03-21T11:23:53;28.87;;;20.87;;
1376;SDS011;682;52.502;13.488;2023-03-21T11:26:26;29.10;;;21.23;;
1376;SDS011;682;52.502;13.488;2023-03-21T11:28:56;24.63;;;18.43;;
1376;SDS011;682;52.502;13.488;2023-03-21T11:31:35;24.37;;;18.80;;
1376;SDS011;682;52.502;13.488;2023-03-21T11:34:04;25.00;;;18.83;;
1376;SDS011;682;52.502;13.488;2023-03-21T11:36:35;30.07;;;17.90;;
1376;SDS011;682;52.502;13.488;2023-03-21T11:39:13;22.43;;;17.10;;
1376;SDS011;682;52.502;13.488;2023-03-21T11:41:54;26.53;;;19.07;;
1376;SDS011;682;52.502;13.488;2023-03-21T11:44:26;21.53;;;17.00;;
1376;SDS011;682;52.502;13.488;2023-03-21T11:46:54;24.90;;;18.03;;
1376;SDS011;682;52.502;13.488;2023-03-21T11:49:22;25.10;;;17.53;;
1376;SDS011;682;52.502;13.488;2023-03-21T11:51:52;26.00;;;18.20;;
1376;SDS011;682;52.502;13.488;2023-03-21T11:54:47;27.33;;;20.07;;
1376;SDS011;682;52.502;13.488;2023-03-21T11:57:28;33.90;;;19.90;;
1376;SDS011;682;52.502;13.488;2023-03-21T12:00:04;23.80;;;17.33;;
1376;SDS011;682;52.502;13.488;2023-03-21T12:02:51;24.00;;;18.33;;
1376;SDS011;682;52.502;13.488;2023-03-21T12:05:33;27.10;;;17.70;;
1376;SDS011;682;52.502;13.488;2023-03-21T12:08:04;22.67;;;17.70;;
1376;SDS011;682;52.502;13.488;2023-03-21T12:10:40;23.63;;;17.43;;
1376;SDS011;682;52.502;13.488;2023-03-21T12:19:41;26.40;;;18.23;;
1376;SDS011;682;52.502;13.488;2023-03-21T12:26:17;23.90;;;17.23;;
1376;SDS011;682;52.502;13.488;2023-03-21T12:28:59;21.33;;;16.10;;
1376;SDS011;682;52.502;13.488;2023-03-21T12:31:55;27.80;;;17.97;;
1376;SDS011;682;52.502;13.488;2023-03-21T12:34:39;22.33;;;16.60;;
1376;SDS011;682;52.502;13.488;2023-03-21T12:37:30;23.37;;;16.90;;
1376;SDS011;682;52.502;13.488;2023-03-21T12:40:04;29.10;;;17.03;;
1376;SDS011;682;52.502;13.488;2023-03-21T12:42:45;24.57;;;19.17;;
1376;SDS011;682;52.502;13.488;2023-03-21T12:45:24;26.77;;;19.83;;
1376;SDS011;682;52.502;13.488;2023-03-21T12:48:10;24.23;;;19.40;;
1376;SDS011;682;52.502;13.488;2023-03-21T12:50:44;26.87;;;18.47;;
1376;SDS011;682;52.502;13.488;2023-03-21T12:53:25;24.77;;;18.90;;
1376;SDS011;682;52.502;13.488;2023-03-21T12:56:10;25.50;;;18.40;;
1376;SDS011;682;52.502;13.488;2023-03-21T12:58:44;24.17;;;16.80;;
1376;SDS011;682;52.502;13.488;2023-03-21T13:01:19;24.33;;;16.20;;
1376;SDS011;682;52.502;13.488;2023-03-21T13:07:16;23.53;;;15.57;;
1376;SDS011;682;52.502;13.488;2023-03-21T13:09:53;21.07;;;15.93;;
1376;SDS011;682;52.502;13.488;2023-03-21T13:12:33;22.70;;;17.10;;
1376;SDS011;682;52.502;13.488;2023-03-21T13:18:24;20.03;;;15.10;;
1376;SDS011;682;52.502;13.488;2023-03-21T13:21:20;24.50;;;16.43;;
1376;SDS011;682;52.502;13.488;2023-03-21T13:23:58;19.40;;;15.73;;
1376;SDS011;682;52.502;13.488;2023-03-21T13:26:31;20.27;;;15.50;;
1376;SDS011;682;52.502;13.488;2023-03-21T13:29:18;18.60;;;14.23;;
1376;SDS011;682;52.502;13.488;2023-03-21T13:31:55;19.10;;;14.03;;
1376;SDS011;682;52.502;13.488;2023-03-21T13:34:38;19.23;;;14.63;;
1376;SDS011;682;52.502;13.488;2023-03-21T13:37:16;18.27;;;13.67;;
1376;SDS011;682;52.502;13.488;2023-03-21T13:39:50;18.20;;;14.20;;
1376;SDS011;682;52.502;13.488;2023-03-21T13:42:20;27.33;;;14.63;;
1376;SDS011;682;52.502;13.488;2023-03-21T13:44:56;20.27;;;13.70;;
1376;SDS011;682;52.502;13.488;2023-03-21T13:50:50;24.43;;;14.30;;
1376;SDS011;682;52.502;13.488;2023-03-21T13:58:57;23.37;;;14.90;;
1376;SDS011;682;52.502;13.488;2023-03-21T14:01:39;27.10;;;21.73;;
1376;SDS011;682;52.502;13.488;2023-03-21T14:04:14;21.80;;;14.13;;
1376;SDS011;682;52.502;13.488;2023-03-21T14:06:45;21.43;;;14.27;;
1376;SDS011;682;52.502;13.488;2023-03-21T14:09:18;19.43;;;14.20;;
1376;SDS011;682;52.502;13.488;2023-03-21T14:11:52;21.47;;;16.80;;
1376;SDS011;682;52.502;13.488;2023-03-21T14:14:23;21.10;;;14.60;;
1376;SDS011;682;52.502;13.488;2023-03-21T14:16:58;20.60;;;14.80;;
1376;SDS011;682;52.502;13.488;2023-03-21T14:19:28;19.77;;;14.47;;
1376;SDS011;682;52.502;13.488;2023-03-21T14:21:59;19.13;;;14.03;;
1376;SDS011;682;52.502;13.488;2023-03-21T14:24:26;18.63;;;14.63;;
1376;SDS011;682;52.502;13.488;2023-03-21T14:26:53;20.73;;;13.63;;
1376;SDS011;682;52.502;13.488;2023-03-21T14:29:24;16.97;;;13.00;;
1376;SDS011;682;52.502;13.488;2023-03-21T14:31:55;17.17;;;12.37;;
1376;SDS011;682;52.502;13.488;2023-03-21T14:34:24;15.83;;;12.13;;
1376;SDS011;682;52.502;13.488;2023-03-21T14:37:00;20.93;;;12.70;;
1376;SDS011;682;52.502;13.488;2023-03-21T14:39:31;19.47;;;13.33;;
1376;SDS011;682;52.502;13.488;2023-03-21T14:42:06;18.73;;;13.30;;
1376;SDS011;682;52.502;13.488;2023-03-21T14:44:40;14.90;;;12.47;;
1376;SDS011;682;52.502;13.488;2023-03-21T14:47:18;16.10;;;12.07;;
1376;SDS011;682;52.502;13.488;2023-03-21T14:49:52;15.90;;;12.07;;
1376;SDS011;682;52.502;13.488;2023-03-21T14:52:57;17.17;;;12.27;;
1376;SDS011;682;52.502;13.488;2023-03-21T14:55:43;17.00;;;11.60;;
1376;SDS011;682;52.502;13.488;2023-03-21T14:58:26;16.27;;;11.27;;
1376;SDS011;682;52.502;13.488;2023-03-21T15:00:55;15.23;;;10.83;;
1376;SDS011;682;52.502;13.488;2023-03-21T15:03:24;14.33;;;11.07;;
1376;SDS011;682;52.502;13.488;2023-03-21T15:05:52;14.27;;;10.90;;
1376;SDS011;682;52.502;13.488;2023-03-21T15:08:23;14.00;;;11.40;;
1376;SDS011;682;52.502;13.488;2023-03-21T15:10:55;15.43;;;11.10;;
1376;SDS011;682;52.502;13.488;2023-03-21T15:13:27;14.63;;;10.70;;
1376;SDS011;682;52.502;13.488;2023-03-21T15:15:56;12.57;;;9.83;;
1376;SDS011;682;52.502;13.488;2023-03-21T15:18:27;14.00;;;10.87;;
1376;SDS011;682;52.502;13.488;2023-03-21T15:21:03;17.57;;;11.00;;
1376;SDS011;682;52.502;13.488;2023-03-21T15:23:36;14.30;;;11.23;;
1376;SDS011;682;52.502;13.488;2023-03-21T15:26:05;15.37;;;11.00;;
1376;SDS011;682;52.502;13.488;2023-03-21T15:28:33;13.87;;;10.10;;
1376;SDS011;682;52.502;13.488;2023-03-21T15:31:01;13.30;;;10.10;;
1376;SDS011;682;52.502;13.488;2023-03-21T15:33:29;13.20;;;10.13;;
1376;SDS011;682;52.502;13.488;2023-03-21T15:35:57;14.30;;;10.53;;
1376;SDS011;682;52.502;13.488;2023-03-21T15:38:27;20.80;;;17.07;;
1376;SDS011;682;52.502;13.488;2023-03-21T15:44:00;13.10;;;10.30;;
1376;SDS011;682;52.502;13.488;2023-03-21T15:46:33;14.77;;;11.50;;
1376;SDS011;682;52.502;13.488;2023-03-21T15:49:07;15.00;;;10.90;;
1376;SDS011;682;52.502;13.488;2023-03-21T15:51:36;14.67;;;11.00;;
1376;SDS011;682;52.502;13.488;2023-03-21T15:54:04;13.80;;;10.90;;
1376;SDS011;682;52.502;13.488;2023-03-21T15:56:36;13.13;;;10.47;;
1376;SDS011;682;52.502;13.488;2023-03-21T15:59:06;13.60;;;10.20;;
1376;SDS011;682;52.502;13.488;2023-03-21T16:01:43;16.30;;;11.83;;
1376;SDS011;682;52.502;13.488;2023-03-21T16:04:12;14.80;;;10.40;;
1376;SDS011;682;52.502;13.488;2023-03-21T16:06:49;13.70;;;11.40;;
1376;SDS011;682;52.502;13.488;2023-03-21T16:09:18;14.60;;;10.17;;
1376;SDS011;682;52.502;13.488;2023-03-21T16:11:56;14.93;;;11.20;;
1376;SDS011;682;52.502;13.488;2023-03-21T16:14:27;16.83;;;11.17;;
1376;SDS011;682;52.502;13.488;2023-03-21T16:16:54;15.43;;;10.80;;